Sand Point, AK

5:41 PM AKST on November 20, 2014 (GMT -0900)
Sand Point | Change Station
CLOSE
Current Station
Airport
Location: Sand Point,
Elevation: 23 ft
Nearby Weather Stations

Elev 23 ft 55.31 °N, 160.52 °W | Updated 5 minutes ago

Mostly Cloudy
Mostly Cloudy
45 °F
Feels Like 41 °F
N
7
Wind Variable Wind from NNW

Today
High -- | Low -- °F
--% Chance of Precip.
Yesterday
High -- | Low -- °F
Precip. -- in
9:25 AM 5:29 PM
Waning Crescent, 2% visible
Pressure 28.38 in
Visibility 10.0 miles
Clouds Few 2800 ft
Scattered Clouds 3700 ft
Mostly Cloudy 4800 ft
Windchill 41 °F
Dew Point 41 °F
Humidity 87%
Rainfall 0.27 in
Snow Depth Not available.
UV 0 out of 12
Pollen Not available.
Air Quality Not available.
Flu Activity Not available.
METAR PASD 210236Z 33006KT 10SM FEW028 SCT037 BKN048 07/05 A2838 RMK AO1 WEA: VCSH NW (DA)

More Conditions Fewer Conditions

Pressure 28.38 in
Visibility 10.0 miles
Clouds Few 2800 ft
Scattered Clouds 3700 ft
Mostly Cloudy 4800 ft
Windchill 41 °F
Dew Point 41 °F
Humidity 87%
Rainfall 0.27 in
Snow Depth Not available.
UV 0 out of 12
Pollen Not available.
Air Quality Not available.
Flu Activity Not available.
METAR PASD 210236Z 33006KT 10SM FEW028 SCT037 BKN048 07/05 A2838 RMK AO1 WEA: VCSH NW (DA)

More Conditions Fewer Conditions

10-Day Weather Forecast

Almanac

Astronomy

Nov. 20, 2014 Rise Set
Actual Time
Civil Twilight
Nautical Twilight
Astronomical Twilight
Moon
Length of Visible Light
Length of Day
Tomorrow will be .
, % of the Moon is Illuminated

Today's Extremes

State Highs State Lows

Community

WunderPhotos

Upload Photos

1,772,593 photos uploaded!

WunderBlogs® & News

Nearby

Air Quality

  Air Quality AQ Index Pollutant
Not available.

Snow Depth

Station Depth Elevation

Earthquake Activity

City Distance Mag. Time & Date
Minimum magnitude displayed is 2.5.

Coastal Water Temperatures

Place Temperature

Nearby Weather Stations